sensor_id;sensor_type;location;lat;lon;timestamp;pressure;altitude;pressure_sealevel;temperature;humidity
53514;BME280;39768;54.148;12.174;2024-03-29T00:02:40;99325.97;;;3.63;81.67
53514;BME280;39768;54.148;12.174;2024-03-29T00:06:43;99341.03;;;3.64;80.87
53514;BME280;39768;54.148;12.174;2024-03-29T00:10:46;99336.25;;;2.90;85.05
53514;BME280;39768;54.148;12.174;2024-03-29T00:14:48;99340.56;;;3.55;77.58
53514;BME280;39768;54.148;12.174;2024-03-29T00:18:50;99352.94;;;3.56;80.01
53514;BME280;39768;54.148;12.174;2024-03-29T00:22:51;99352.09;;;3.55;79.08
53514;BME280;39768;54.148;12.174;2024-03-29T00:26:53;99350.97;;;4.00;79.27
53514;BME280;39768;54.148;12.174;2024-03-29T00:30:55;99351.25;;;4.13;75.97
53514;BME280;39768;54.148;12.174;2024-03-29T00:34:56;99352.16;;;3.93;76.58
53514;BME280;39768;54.148;12.174;2024-03-29T00:38:58;99362.75;;;3.94;75.98
53514;BME280;39768;54.148;12.174;2024-03-29T00:42:59;99360.75;;;4.20;73.10
53514;BME280;39768;54.148;12.174;2024-03-29T00:47:18;99361.69;;;3.98;73.66
53514;BME280;39768;54.148;12.174;2024-03-29T00:51:19;99362.16;;;4.27;69.84
53514;BME280;39768;54.148;12.174;2024-03-29T00:55:20;99366.44;;;4.31;69.58
53514;BME280;39768;54.148;12.174;2024-03-29T00:59:21;99369.03;;;4.12;70.21
53514;BME280;39768;54.148;12.174;2024-03-29T01:03:23;99375.41;;;3.08;74.72
53514;BME280;39768;54.148;12.174;2024-03-29T01:07:26;99366.59;;;2.86;80.07
53514;BME280;39768;54.148;12.174;2024-03-29T01:11:28;99362.56;;;2.97;78.34
53514;BME280;39768;54.148;12.174;2024-03-29T01:15:29;99375.88;;;3.79;75.91
53514;BME280;39768;54.148;12.174;2024-03-29T01:19:30;99372.50;;;3.14;79.83
53514;BME280;39768;54.148;12.174;2024-03-29T01:23:32;99381.31;;;3.57;76.37
53514;BME280;39768;54.148;12.174;2024-03-29T01:27:33;99377.66;;;3.17;78.46
53514;BME280;39768;54.148;12.174;2024-03-29T01:31:35;99379.78;;;3.31;75.61
53514;BME280;39768;54.148;12.174;2024-03-29T01:35:36;99376.22;;;3.51;76.03
53514;BME280;39768;54.148;12.174;2024-03-29T01:39:37;99390.28;;;3.75;74.49
53514;BME280;39768;54.148;12.174;2024-03-29T01:43:38;99383.41;;;3.49;76.17
53514;BME280;39768;54.148;12.174;2024-03-29T01:47:59;99394.56;;;3.97;74.22
53514;BME280;39768;54.148;12.174;2024-03-29T01:52:01;99390.91;;;3.61;73.66
53514;BME280;39768;54.148;12.174;2024-03-29T01:56:04;99390.00;;;3.81;72.04
53514;BME280;39768;54.148;12.174;2024-03-29T02:00:05;99386.94;;;3.49;72.67
53514;BME280;39768;54.148;12.174;2024-03-29T02:04:06;99397.53;;;3.30;73.80
53514;BME280;39768;54.148;12.174;2024-03-29T02:08:10;99389.09;;;3.19;72.12
53514;BME280;39768;54.148;12.174;2024-03-29T02:12:11;99392.41;;;3.66;71.38
53514;BME280;39768;54.148;12.174;2024-03-29T02:16:14;99385.81;;;3.34;70.78
53514;BME280;39768;54.148;12.174;2024-03-29T02:20:15;99390.19;;;3.35;71.37
53514;BME280;39768;54.148;12.174;2024-03-29T02:24:16;99385.97;;;3.10;72.20
53514;BME280;39768;54.148;12.174;2024-03-29T02:28:18;99392.78;;;3.37;71.36
53514;BME280;39768;54.148;12.174;2024-03-29T02:32:21;99393.81;;;3.75;69.36
53514;BME280;39768;54.148;12.174;2024-03-29T02:36:22;99396.00;;;3.45;69.58
53514;BME280;39768;54.148;12.174;2024-03-29T02:40:22;99401.25;;;3.47;70.21
53514;BME280;39768;54.148;12.174;2024-03-29T02:44:24;99399.91;;;3.16;72.74
53514;BME280;39768;54.148;12.174;2024-03-29T02:48:25;99405.16;;;2.96;73.08
53514;BME280;39768;54.148;12.174;2024-03-29T02:52:27;99394.91;;;2.42;74.95
53514;BME280;39768;54.148;12.174;2024-03-29T02:56:31;99404.41;;;2.71;73.78
53514;BME280;39768;54.148;12.174;2024-03-29T03:00:33;99404.34;;;2.49;76.50
53514;BME280;39768;54.148;12.174;2024-03-29T03:04:35;99413.13;;;2.51;75.14
53514;BME280;39768;54.148;12.174;2024-03-29T03:08:37;99418.59;;;2.70;73.71
53514;BME280;39768;54.148;12.174;2024-03-29T03:12:56;99431.56;;;2.55;75.00
53514;BME280;39768;54.148;12.174;2024-03-29T03:16:57;99433.63;;;2.71;72.99
53514;BME280;39768;54.148;12.174;2024-03-29T03:20:58;99429.22;;;3.15;71.39
53514;BME280;39768;54.148;12.174;2024-03-29T03:24:59;99429.78;;;3.01;71.41
53514;BME280;39768;54.148;12.174;2024-03-29T03:29:00;99432.19;;;3.49;68.76
53514;BME280;39768;54.148;12.174;2024-03-29T03:33:02;99434.63;;;2.68;71.41
53514;BME280;39768;54.148;12.174;2024-03-29T03:37:03;99428.53;;;2.88;71.26
53514;BME280;39768;54.148;12.174;2024-03-29T03:41:04;99441.16;;;3.26;68.44
53514;BME280;39768;54.148;12.174;2024-03-29T03:45:05;99439.19;;;3.52;68.27
53514;BME280;39768;54.148;12.174;2024-03-29T03:49:06;99452.06;;;2.98;70.74
53514;BME280;39768;54.148;12.174;2024-03-29T03:53:07;99459.22;;;2.96;69.41
53514;BME280;39768;54.148;12.174;2024-03-29T03:57:08;99448.59;;;2.96;71.07
53514;BME280;39768;54.148;12.174;2024-03-29T04:01:09;99447.53;;;2.55;69.98
53514;BME280;39768;54.148;12.174;2024-03-29T04:05:11;99449.03;;;2.39;72.23
53514;BME280;39768;54.148;12.174;2024-03-29T04:09:16;99437.19;;;2.24;75.13
53514;BME280;39768;54.148;12.174;2024-03-29T04:13:18;99438.19;;;1.97;76.51
53514;BME280;39768;54.148;12.174;2024-03-29T04:17:19;99435.75;;;2.61;72.47
53514;BME280;39768;54.148;12.174;2024-03-29T04:21:20;99435.22;;;2.98;70.40
53514;BME280;39768;54.148;12.174;2024-03-29T04:25:21;99425.66;;;3.36;67.00
53514;BME280;39768;54.148;12.174;2024-03-29T04:29:22;99431.19;;;2.64;68.28
53514;BME280;39768;54.148;12.174;2024-03-29T04:33:24;99441.84;;;2.18;72.05
53514;BME280;39768;54.148;12.174;2024-03-29T04:37:25;99453.69;;;3.45;64.66
53514;BME280;39768;54.148;12.174;2024-03-29T04:41:27;99456.53;;;3.18;67.32
53514;BME280;39768;54.148;12.174;2024-03-29T04:45:28;99464.63;;;3.17;65.61
53514;BME280;39768;54.148;12.174;2024-03-29T04:49:28;99481.69;;;3.11;65.72
53514;BME280;39768;54.148;12.174;2024-03-29T04:53:37;99468.06;;;2.97;66.71
53514;BME280;39768;54.148;12.174;2024-03-29T04:57:40;99462.41;;;3.05;65.83
53514;BME280;39768;54.148;12.174;2024-03-29T05:01:41;99462.81;;;2.95;68.15
53514;BME280;39768;54.148;12.174;2024-03-29T05:05:44;99469.66;;;2.56;70.65
53514;BME280;39768;54.148;12.174;2024-03-29T05:09:45;99453.38;;;1.93;73.83
53514;BME280;39768;54.148;12.174;2024-03-29T05:13:47;99461.47;;;2.60;70.35
53514;BME280;39768;54.148;12.174;2024-03-29T05:17:49;99461.78;;;2.76;70.34
53514;BME280;39768;54.148;12.174;2024-03-29T05:21:50;99464.31;;;2.79;71.38
53514;BME280;39768;54.148;12.174;2024-03-29T05:25:51;99467.25;;;2.48;70.82
53514;BME280;39768;54.148;12.174;2024-03-29T05:29:52;99471.09;;;3.31;68.68
53514;BME280;39768;54.148;12.174;2024-03-29T05:33:53;99482.00;;;3.67;65.06
53514;BME280;39768;54.148;12.174;2024-03-29T05:37:54;99491.00;;;5.02;57.74
53514;BME280;39768;54.148;12.174;2024-03-29T05:41:55;99477.44;;;3.49;61.76
53514;BME280;39768;54.148;12.174;2024-03-29T05:45:56;99487.78;;;3.77;61.13
53514;BME280;39768;54.148;12.174;2024-03-29T05:49:57;99491.13;;;3.40;65.25
53514;BME280;39768;54.148;12.174;2024-03-29T05:54:18;99483.91;;;3.22;66.63
53514;BME280;39768;54.148;12.174;2024-03-29T05:58:19;99493.13;;;4.38;61.45
53514;BME280;39768;54.148;12.174;2024-03-29T06:02:21;99506.00;;;3.66;62.82
53514;BME280;39768;54.148;12.174;2024-03-29T06:06:23;99496.06;;;4.12;62.69
53514;BME280;39768;54.148;12.174;2024-03-29T06:10:25;99503.94;;;4.35;60.77
53514;BME280;39768;54.148;12.174;2024-03-29T06:14:26;99509.66;;;3.85;60.81
53514;BME280;39768;54.148;12.174;2024-03-29T06:18:46;99530.50;;;4.57;61.01
53514;BME280;39768;54.148;12.174;2024-03-29T06:22:47;99538.59;;;3.93;62.60
53514;BME280;39768;54.148;12.174;2024-03-29T06:26:48;99529.34;;;3.81;64.94
53514;BME280;39768;54.148;12.174;2024-03-29T06:30:49;99538.25;;;4.43;63.78
53514;BME280;39768;54.148;12.174;2024-03-29T06:34:51;99546.66;;;3.91;64.08
53514;BME280;39768;54.148;12.174;2024-03-29T06:38:53;99554.47;;;3.96;64.67
53514;BME280;39768;54.148;12.174;2024-03-29T06:42:55;99542.41;;;3.87;65.37
53514;BME280;39768;54.148;12.174;2024-03-29T06:46:58;99543.75;;;3.55;66.75
53514;BME280;39768;54.148;12.174;2024-03-29T06:50:59;99543.28;;;4.08;64.85
53514;BME280;39768;54.148;12.174;2024-03-29T06:55:08;99559.56;;;4.43;66.39
53514;BME280;39768;54.148;12.174;2024-03-29T06:59:10;99547.72;;;4.07;66.65
53514;BME280;39768;54.148;12.174;2024-03-29T07:03:11;99546.91;;;3.43;67.79
53514;BME280;39768;54.148;12.174;2024-03-29T07:07:12;99560.78;;;4.15;64.43
53514;BME280;39768;54.148;12.174;2024-03-29T07:11:14;99571.44;;;3.93;64.46
53514;BME280;39768;54.148;12.174;2024-03-29T07:15:15;99579.16;;;4.81;64.18
53514;BME280;39768;54.148;12.174;2024-03-29T07:19:16;99573.75;;;3.81;65.12
53514;BME280;39768;54.148;12.174;2024-03-29T07:23:17;99585.16;;;4.86;61.27
53514;BME280;39768;54.148;12.174;2024-03-29T07:27:19;99586.94;;;4.26;63.24
53514;BME280;39768;54.148;12.174;2024-03-29T07:31:20;99595.81;;;4.26;62.44
53514;BME280;39768;54.148;12.174;2024-03-29T07:35:23;99594.56;;;4.13;64.18
53514;BME280;39768;54.148;12.174;2024-03-29T07:39:24;99578.34;;;4.39;61.79
53514;BME280;39768;54.148;12.174;2024-03-29T07:43:25;99574.47;;;4.67;60.90
53514;BME280;39768;54.148;12.174;2024-03-29T07:47:27;99573.50;;;4.29;62.95
53514;BME280;39768;54.148;12.174;2024-03-29T07:51:27;99579.25;;;4.20;65.07
53514;BME280;39768;54.148;12.174;2024-03-29T07:55:49;99584.84;;;5.31;59.73
53514;BME280;39768;54.148;12.174;2024-03-29T07:59:50;99593.47;;;4.98;59.71
53514;BME280;39768;54.148;12.174;2024-03-29T08:03:52;99591.22;;;4.50;61.16
53514;BME280;39768;54.148;12.174;2024-03-29T08:07:54;99583.25;;;5.27;59.04
53514;BME280;39768;54.148;12.174;2024-03-29T08:11:55;99588.94;;;5.00;61.52
53514;BME280;39768;54.148;12.174;2024-03-29T08:16:00;99597.69;;;5.04;58.42
53514;BME280;39768;54.148;12.174;2024-03-29T08:20:04;99606.13;;;5.70;57.01
53514;BME280;39768;54.148;12.174;2024-03-29T08:24:06;99626.31;;;5.94;55.74
53514;BME280;39768;54.148;12.174;2024-03-29T08:28:08;99619.19;;;5.76;56.10
53514;BME280;39768;54.148;12.174;2024-03-29T08:32:08;99617.47;;;5.37;57.61
53514;BME280;39768;54.148;12.174;2024-03-29T08:36:11;99610.56;;;5.13;56.96
53514;BME280;39768;54.148;12.174;2024-03-29T08:40:12;99628.03;;;5.95;56.99
53514;BME280;39768;54.148;12.174;2024-03-29T08:44:14;99624.00;;;5.30;57.51
53514;BME280;39768;54.148;12.174;2024-03-29T08:48:15;99623.91;;;5.52;56.46
53514;BME280;39768;54.148;12.174;2024-03-29T08:52:16;99645.34;;;5.51;55.54
53514;BME280;39768;54.148;12.174;2024-03-29T08:56:18;99644.16;;;5.75;54.13
53514;BME280;39768;54.148;12.174;2024-03-29T09:00:20;99652.84;;;5.42;54.54
53514;BME280;39768;54.148;12.174;2024-03-29T09:04:21;99666.50;;;6.10;54.06
53514;BME280;39768;54.148;12.174;2024-03-29T09:08:25;99654.03;;;5.92;53.87
53514;BME280;39768;54.148;12.174;2024-03-29T09:12:27;99648.94;;;6.04;53.01
53514;BME280;39768;54.148;12.174;2024-03-29T09:16:31;99649.84;;;6.58;52.07
53514;BME280;39768;54.148;12.174;2024-03-29T09:20:33;99651.13;;;6.49;52.62
53514;BME280;39768;54.148;12.174;2024-03-29T09:24:34;99647.53;;;5.97;53.16
53514;BME280;39768;54.148;12.174;2024-03-29T09:28:37;99648.00;;;6.41;53.97
53514;BME280;39768;54.148;12.174;2024-03-29T09:32:39;99640.88;;;6.23;54.23
53514;BME280;39768;54.148;12.174;2024-03-29T09:36:41;99633.09;;;6.36;53.82
53514;BME280;39768;54.148;12.174;2024-03-29T09:40:44;99648.03;;;6.23;54.16
53514;BME280;39768;54.148;12.174;2024-03-29T09:44:49;99632.34;;;6.68;53.70
53514;BME280;39768;54.148;12.174;2024-03-29T09:48:51;99635.78;;;7.20;54.22
53514;BME280;39768;54.148;12.174;2024-03-29T09:52:53;99654.41;;;6.56;53.70
53514;BME280;39768;54.148;12.174;2024-03-29T09:56:55;99649.63;;;6.96;53.23
53514;BME280;39768;54.148;12.174;2024-03-29T10:00:58;99663.63;;;7.01;53.43
53514;BME280;39768;54.148;12.174;2024-03-29T10:05:00;99659.13;;;7.67;52.72
53514;BME280;39768;54.148;12.174;2024-03-29T10:09:03;99635.03;;;6.68;55.41
53514;BME280;39768;54.148;12.174;2024-03-29T10:13:05;99629.03;;;6.80;56.99
53514;BME280;39768;54.148;12.174;2024-03-29T10:17:06;99631.59;;;7.32;55.77
53514;BME280;39768;54.148;12.174;2024-03-29T10:21:08;99632.47;;;7.00;56.70
53514;BME280;39768;54.148;12.174;2024-03-29T10:25:10;99628.38;;;6.93;58.63
53514;BME280;39768;54.148;12.174;2024-03-29T10:29:11;99639.78;;;7.29;56.59
53514;BME280;39768;54.148;12.174;2024-03-29T10:33:18;99618.88;;;7.03;59.90
53514;BME280;39768;54.148;12.174;2024-03-29T10:37:19;99613.28;;;6.74;61.40
53514;BME280;39768;54.148;12.174;2024-03-29T10:41:27;99614.81;;;6.63;62.02
53514;BME280;39768;54.148;12.174;2024-03-29T10:45:29;99602.97;;;6.49;62.69
53514;BME280;39768;54.148;12.174;2024-03-29T10:49:32;99566.25;;;6.70;65.00
53514;BME280;39768;54.148;12.174;2024-03-29T10:53:38;99545.78;;;6.69;63.63
53514;BME280;39768;54.148;12.174;2024-03-29T10:57:43;99531.19;;;5.90;68.26
53514;BME280;39768;54.148;12.174;2024-03-29T11:02:12;99536.81;;;6.70;66.52
53514;BME280;39768;54.148;12.174;2024-03-29T11:06:14;99548.13;;;6.75;67.15
53514;BME280;39768;54.148;12.174;2024-03-29T11:10:29;99531.84;;;6.96;66.20
53514;BME280;39768;54.148;12.174;2024-03-29T11:14:37;99522.19;;;7.40;63.00
53514;BME280;39768;54.148;12.174;2024-03-29T11:18:40;99524.25;;;6.38;66.88
53514;BME280;39768;54.148;12.174;2024-03-29T11:22:41;99521.56;;;6.88;65.01
53514;BME280;39768;54.148;12.174;2024-03-29T11:26:42;99523.94;;;7.26;64.09
53514;BME280;39768;54.148;12.174;2024-03-29T11:30:46;99513.66;;;7.02;64.79
53514;BME280;39768;54.148;12.174;2024-03-29T11:34:46;99508.47;;;7.15;63.02
53514;BME280;39768;54.148;12.174;2024-03-29T11:38:48;99510.59;;;7.55;60.79
53514;BME280;39768;54.148;12.174;2024-03-29T11:42:52;99509.84;;;7.22;59.72
53514;BME280;39768;54.148;12.174;2024-03-29T11:46:57;99513.63;;;6.86;60.54
53514;BME280;39768;54.148;12.174;2024-03-29T11:50:59;99501.31;;;7.15;61.55
53514;BME280;39768;54.148;12.174;2024-03-29T11:55:00;99500.84;;;6.43;62.25
53514;BME280;39768;54.148;12.174;2024-03-29T11:59:03;99508.44;;;6.50;64.26
53514;BME280;39768;54.148;12.174;2024-03-29T12:03:04;99505.34;;;7.22;63.09
53514;BME280;39768;54.148;12.174;2024-03-29T12:07:05;99512.88;;;7.16;64.05
53514;BME280;39768;54.148;12.174;2024-03-29T12:11:05;99507.16;;;7.38;63.01
53514;BME280;39768;54.148;12.174;2024-03-29T12:15:07;99530.91;;;7.60;60.79
53514;BME280;39768;54.148;12.174;2024-03-29T12:19:08;99517.94;;;6.89;66.68
53514;BME280;39768;54.148;12.174;2024-03-29T12:23:09;99526.41;;;6.81;66.07
53514;BME280;39768;54.148;12.174;2024-03-29T12:27:12;99520.81;;;7.65;62.92
53514;BME280;39768;54.148;12.174;2024-03-29T12:31:13;99519.25;;;7.61;64.85
53514;BME280;39768;54.148;12.174;2024-03-29T12:35:15;99523.88;;;6.78;66.18
53514;BME280;39768;54.148;12.174;2024-03-29T12:39:16;99513.91;;;7.29;65.61
53514;BME280;39768;54.148;12.174;2024-03-29T12:43:22;99493.19;;;7.17;64.32
53514;BME280;39768;54.148;12.174;2024-03-29T12:47:24;99514.75;;;7.77;61.07
53514;BME280;39768;54.148;12.174;2024-03-29T12:51:26;99522.00;;;7.90;59.83
53514;BME280;39768;54.148;12.174;2024-03-29T12:55:29;99516.66;;;7.59;60.57
53514;BME280;39768;54.148;12.174;2024-03-29T12:59:33;99518.56;;;7.41;60.43
53514;BME280;39768;54.148;12.174;2024-03-29T13:03:34;99521.41;;;7.22;61.48
53514;BME280;39768;54.148;12.174;2024-03-29T13:07:35;99525.22;;;7.18;62.50
53514;BME280;39768;54.148;12.174;2024-03-29T13:11:35;99507.38;;;7.80;60.72
53514;BME280;39768;54.148;12.174;2024-03-29T13:15:37;99517.88;;;7.53;61.70
53514;BME280;39768;54.148;12.174;2024-03-29T13:19:38;99526.78;;;7.70;60.44
53514;BME280;39768;54.148;12.174;2024-03-29T13:23:39;99539.47;;;7.50;58.61
53514;BME280;39768;54.148;12.174;2024-03-29T13:27:41;99547.28;;;8.31;56.22
53514;BME280;39768;54.148;12.174;2024-03-29T13:31:42;99529.09;;;7.91;58.64
53514;BME280;39768;54.148;12.174;2024-03-29T13:35:42;99544.63;;;8.59;55.57
53514;BME280;39768;54.148;12.174;2024-03-29T13:39:44;99544.72;;;8.43;55.55
53514;BME280;39768;54.148;12.174;2024-03-29T13:43:45;99550.69;;;9.19;53.96
53514;BME280;39768;54.148;12.174;2024-03-29T13:47:45;99536.50;;;8.60;55.16
53514;BME280;39768;54.148;12.174;2024-03-29T13:51:49;99539.72;;;8.37;56.03
53514;BME280;39768;54.148;12.174;2024-03-29T13:55:50;99557.34;;;8.85;55.05
53514;BME280;39768;54.148;12.174;2024-03-29T13:59:50;99545.94;;;8.38;56.32
53514;BME280;39768;54.148;12.174;2024-03-29T14:03:51;99542.53;;;8.50;57.44
53514;BME280;39768;54.148;12.174;2024-03-29T14:07:53;99549.00;;;8.32;58.69
53514;BME280;39768;54.148;12.174;2024-03-29T14:11:54;99571.16;;;8.93;55.94
53514;BME280;39768;54.148;12.174;2024-03-29T14:15:54;99564.00;;;9.35;53.99
53514;BME280;39768;54.148;12.174;2024-03-29T14:19:56;99546.03;;;9.09;54.14
53514;BME280;39768;54.148;12.174;2024-03-29T14:23:57;99553.13;;;8.95;55.69
53514;BME280;39768;54.148;12.174;2024-03-29T14:27:59;99536.25;;;8.79;56.43
53514;BME280;39768;54.148;12.174;2024-03-29T14:32:02;99550.03;;;9.02;56.26
53514;BME280;39768;54.148;12.174;2024-03-29T14:36:03;99575.47;;;9.24;54.33
53514;BME280;39768;54.148;12.174;2024-03-29T14:40:05;99570.59;;;9.44;54.44
53514;BME280;39768;54.148;12.174;2024-03-29T14:44:06;99584.22;;;9.41;52.74
53514;BME280;39768;54.148;12.174;2024-03-29T14:48:07;99589.59;;;9.41;54.08
53514;BME280;39768;54.148;12.174;2024-03-29T14:52:08;99594.03;;;9.42;54.41
53514;BME280;39768;54.148;12.174;2024-03-29T14:56:08;99576.97;;;10.63;50.86
53514;BME280;39768;54.148;12.174;2024-03-29T15:00:09;99567.09;;;10.24;52.15
53514;BME280;39768;54.148;12.174;2024-03-29T15:04:11;99563.97;;;10.30;52.08
53514;BME280;39768;54.148;12.174;2024-03-29T15:08:11;99561.03;;;9.81;54.55
53514;BME280;39768;54.148;12.174;2024-03-29T15:12:17;99558.97;;;10.63;52.16
53514;BME280;39768;54.148;12.174;2024-03-29T15:16:18;99555.47;;;10.23;53.86
53514;BME280;39768;54.148;12.174;2024-03-29T15:20:19;99540.06;;;9.86;53.88
53514;BME280;39768;54.148;12.174;2024-03-29T15:24:20;99526.28;;;9.10;58.09
53514;BME280;39768;54.148;12.174;2024-03-29T15:28:21;99546.69;;;9.67;55.55
53514;BME280;39768;54.148;12.174;2024-03-29T15:32:40;99553.56;;;10.38;53.84
53514;BME280;39768;54.148;12.174;2024-03-29T15:36:41;99557.25;;;10.50;53.53
53514;BME280;39768;54.148;12.174;2024-03-29T15:40:42;99544.34;;;10.15;54.49
53514;BME280;39768;54.148;12.174;2024-03-29T15:44:42;99541.63;;;9.49;58.30
53514;BME280;39768;54.148;12.174;2024-03-29T15:48:43;99557.22;;;9.56;60.06
53514;BME280;39768;54.148;12.174;2024-03-29T15:52:43;99576.97;;;9.28;62.16
53514;BME280;39768;54.148;12.174;2024-03-29T15:56:44;99582.25;;;9.30;66.37
53514;BME280;39768;54.148;12.174;2024-03-29T16:00:45;99584.16;;;9.28;70.59
53514;BME280;39768;54.148;12.174;2024-03-29T16:04:45;99587.91;;;9.11;72.05
53514;BME280;39768;54.148;12.174;2024-03-29T16:08:46;99609.28;;;9.27;73.49
53514;BME280;39768;54.148;12.174;2024-03-29T16:12:46;99599.78;;;9.64;72.42
53514;BME280;39768;54.148;12.174;2024-03-29T16:16:47;99580.97;;;9.64;71.84
53514;BME280;39768;54.148;12.174;2024-03-29T16:20:48;99590.25;;;9.73;73.82
53514;BME280;39768;54.148;12.174;2024-03-29T16:24:49;99569.41;;;9.76;73.98
53514;BME280;39768;54.148;12.174;2024-03-29T16:28:49;99576.66;;;9.88;74.40
53514;BME280;39768;54.148;12.174;2024-03-29T16:32:52;99582.75;;;9.78;74.88
53514;BME280;39768;54.148;12.174;2024-03-29T16:36:52;99611.66;;;10.01;70.88
53514;BME280;39768;54.148;12.174;2024-03-29T16:40:53;99602.56;;;9.62;71.17
53514;BME280;39768;54.148;12.174;2024-03-29T16:44:54;99586.03;;;8.25;78.84
53514;BME280;39768;54.148;12.174;2024-03-29T16:48:54;99579.47;;;9.31;75.46
53514;BME280;39768;54.148;12.174;2024-03-29T16:52:55;99591.69;;;8.80;77.58
53514;BME280;39768;54.148;12.174;2024-03-29T16:56:55;99592.13;;;9.15;72.34
53514;BME280;39768;54.148;12.174;2024-03-29T17:00:56;99579.34;;;8.62;77.18
53514;BME280;39768;54.148;12.174;2024-03-29T17:04:58;99567.38;;;9.39;71.20
53514;BME280;39768;54.148;12.174;2024-03-29T17:08:58;99573.63;;;8.68;76.52
53514;BME280;39768;54.148;12.174;2024-03-29T17:13:00;99591.00;;;7.87;83.57
53514;BME280;39768;54.148;12.174;2024-03-29T17:17:02;99600.78;;;8.48;78.91
53514;BME280;39768;54.148;12.174;2024-03-29T17:21:05;99603.88;;;7.80;83.05
53514;BME280;39768;54.148;12.174;2024-03-29T17:25:06;99631.34;;;8.45;78.91
53514;BME280;39768;54.148;12.174;2024-03-29T17:29:07;99633.50;;;8.39;78.35
53514;BME280;39768;54.148;12.174;2024-03-29T17:33:07;99639.59;;;8.56;74.43
53514;BME280;39768;54.148;12.174;2024-03-29T17:37:08;99642.63;;;8.36;77.48
53514;BME280;39768;54.148;12.174;2024-03-29T17:41:09;99653.19;;;8.23;78.30
53514;BME280;39768;54.148;12.174;2024-03-29T17:45:09;99652.09;;;7.96;78.78
53514;BME280;39768;54.148;12.174;2024-03-29T17:49:10;99656.34;;;8.46;77.39
53514;BME280;39768;54.148;12.174;2024-03-29T17:53:10;99670.13;;;8.40;76.95
53514;BME280;39768;54.148;12.174;2024-03-29T17:57:11;99673.06;;;8.51;73.01
53514;BME280;39768;54.148;12.174;2024-03-29T18:01:13;99677.00;;;8.59;72.82
53514;BME280;39768;54.148;12.174;2024-03-29T18:05:14;99696.63;;;9.20;69.23
53514;BME280;39768;54.148;12.174;2024-03-29T18:09:15;99685.28;;;9.29;67.29
53514;BME280;39768;54.148;12.174;2024-03-29T18:13:16;99703.03;;;9.31;66.87
53514;BME280;39768;54.148;12.174;2024-03-29T18:17:16;99697.59;;;9.76;63.90
53514;BME280;39768;54.148;12.174;2024-03-29T18:21:17;99708.84;;;9.82;63.64
53514;BME280;39768;54.148;12.174;2024-03-29T18:25:17;99729.28;;;9.71;63.00
53514;BME280;39768;54.148;12.174;2024-03-29T18:29:18;99716.75;;;9.41;64.68
53514;BME280;39768;54.148;12.174;2024-03-29T18:33:19;99729.03;;;9.31;65.24
53514;BME280;39768;54.148;12.174;2024-03-29T18:37:19;99730.56;;;9.07;65.99
53514;BME280;39768;54.148;12.174;2024-03-29T18:41:20;99756.13;;;9.42;63.90
53514;BME280;39768;54.148;12.174;2024-03-29T18:45:23;99764.72;;;9.19;63.72
53514;BME280;39768;54.148;12.174;2024-03-29T18:49:25;99768.09;;;9.22;63.40
53514;BME280;39768;54.148;12.174;2024-03-29T18:53:26;99777.91;;;8.93;64.88
53514;BME280;39768;54.148;12.174;2024-03-29T18:57:27;99784.53;;;9.02;63.82
53514;BME280;39768;54.148;12.174;2024-03-29T19:01:27;99782.84;;;8.85;64.86
53514;BME280;39768;54.148;12.174;2024-03-29T19:05:28;99793.19;;;8.77;64.43
53514;BME280;39768;54.148;12.174;2024-03-29T19:09:28;99793.34;;;8.74;65.59
53514;BME280;39768;54.148;12.174;2024-03-29T19:13:29;99804.34;;;8.54;65.66
53514;BME280;39768;54.148;12.174;2024-03-29T19:17:30;99825.28;;;8.32;66.51
53514;BME280;39768;54.148;12.174;2024-03-29T19:21:31;99805.91;;;8.26;65.96
53514;BME280;39768;54.148;12.174;2024-03-29T19:25:35;99794.22;;;8.27;65.28
53514;BME280;39768;54.148;12.174;2024-03-29T19:29:35;99802.22;;;7.96;67.74
53514;BME280;39768;54.148;12.174;2024-03-29T19:33:36;99802.16;;;7.47;72.64
53514;BME280;39768;54.148;12.174;2024-03-29T19:37:37;99788.22;;;7.58;73.39
53514;BME280;39768;54.148;12.174;2024-03-29T19:41:39;99808.41;;;8.14;69.03
53514;BME280;39768;54.148;12.174;2024-03-29T19:45:40;99811.28;;;7.78;71.13
53514;BME280;39768;54.148;12.174;2024-03-29T19:49:40;99815.47;;;7.99;69.92
53514;BME280;39768;54.148;12.174;2024-03-29T19:53:41;99811.13;;;7.81;70.92
53514;BME280;39768;54.148;12.174;2024-03-29T19:57:42;99810.47;;;8.09;70.77
53514;BME280;39768;54.148;12.174;2024-03-29T20:01:42;99813.19;;;6.72;81.31
53514;BME280;39768;54.148;12.174;2024-03-29T20:05:43;99811.56;;;7.89;75.90
53514;BME280;39768;54.148;12.174;2024-03-29T20:09:43;99823.72;;;8.27;72.57
53514;BME280;39768;54.148;12.174;2024-03-29T20:13:44;99822.94;;;8.25;71.82
53514;BME280;39768;54.148;12.174;2024-03-29T20:17:45;99833.66;;;8.10;77.15
53514;BME280;39768;54.148;12.174;2024-03-29T20:21:46;99830.69;;;7.99;75.87
53514;BME280;39768;54.148;12.174;2024-03-29T20:25:46;99829.19;;;7.93;74.89
53514;BME280;39768;54.148;12.174;2024-03-29T20:29:47;99820.91;;;7.65;80.00
53514;BME280;39768;54.148;12.174;2024-03-29T20:33:47;99825.53;;;8.11;76.41
53514;BME280;39768;54.148;12.174;2024-03-29T20:37:48;99833.06;;;7.37;77.76
53514;BME280;39768;54.148;12.174;2024-03-29T20:41:49;99835.41;;;7.61;79.01
53514;BME280;39768;54.148;12.174;2024-03-29T20:45:49;99815.09;;;7.05;83.37
53514;BME280;39768;54.148;12.174;2024-03-29T20:49:51;99813.22;;;7.07;86.21
53514;BME280;39768;54.148;12.174;2024-03-29T20:53:52;99815.75;;;7.10;84.48
53514;BME280;39768;54.148;12.174;2024-03-29T20:57:52;99823.34;;;7.52;77.87
53514;BME280;39768;54.148;12.174;2024-03-29T21:01:57;99844.19;;;7.97;73.39
53514;BME280;39768;54.148;12.174;2024-03-29T21:06:16;99847.13;;;8.08;71.76
53514;BME280;39768;54.148;12.174;2024-03-29T21:10:17;99853.16;;;7.96;71.64
53514;BME280;39768;54.148;12.174;2024-03-29T21:14:18;99862.97;;;7.80;70.81
53514;BME280;39768;54.148;12.174;2024-03-29T21:18:18;99870.00;;;7.82;71.54
53514;BME280;39768;54.148;12.174;2024-03-29T21:22:19;99882.63;;;7.63;71.28